createdAt,value
2023-03-05T00:00:54.589Z,70.79
2023-03-05T00:05:57.703Z,70.75
2023-03-05T00:11:01.460Z,70.79
2023-03-05T00:16:08.905Z,70.78
2023-03-05T00:21:21.218Z,70.77
2023-03-05T00:26:25.229Z,70.41
2023-03-05T00:31:32.085Z,70.78
2023-03-05T00:36:34.932Z,71.00
2023-03-05T00:41:37.224Z,70.65
2023-03-05T00:46:39.177Z,70.74
2023-03-05T00:51:41.318Z,70.73
2023-03-05T00:56:43.023Z,70.73
2023-03-05T01:01:44.725Z,70.83
2023-03-05T01:06:46.746Z,70.89
2023-03-05T01:11:48.752Z,71.04
2023-03-05T01:16:50.340Z,70.98
2023-03-05T01:21:52.145Z,71.36
2023-03-05T01:26:53.739Z,71.62
2023-03-05T01:31:55.406Z,71.69
2023-03-05T01:36:56.994Z,71.49
2023-03-05T01:41:58.586Z,71.22
2023-03-05T01:47:00.317Z,71.59
2023-03-05T01:52:11.816Z,71.69
2023-03-05T01:57:46.970Z,71.53
2023-03-05T02:02:50.477Z,71.40
2023-03-05T02:07:54.491Z,71.31
2023-03-05T02:13:00.505Z,71.76
2023-03-05T02:18:02.488Z,72.11
2023-03-05T02:23:04.117Z,71.82
2023-03-05T02:28:37.511Z,72.02
2023-03-05T02:33:39.489Z,71.85
2023-03-05T02:38:42.628Z,72.08
2023-03-05T02:43:44.693Z,72.46
2023-03-05T02:48:46.951Z,72.73
2023-03-05T02:53:49.370Z,72.94
2023-03-05T02:58:51.994Z,73.18
2023-03-05T03:03:54.688Z,73.17
2023-03-05T03:08:56.321Z,73.23
2023-03-05T03:13:59.872Z,73.09
2023-03-05T03:19:01.452Z,73.36
2023-03-05T03:24:03.251Z,73.04
2023-03-05T03:29:04.892Z,73.57
2023-03-05T03:34:06.610Z,73.28
2023-03-05T03:39:09.971Z,73.28
2023-03-05T03:44:13.116Z,72.94
2023-03-05T03:49:24.220Z,72.79
2023-03-05T03:54:26.176Z,73.13
2023-03-05T03:59:27.803Z,72.55
2023-03-05T04:04:30.356Z,72.84
2023-03-05T04:09:32.007Z,72.79
2023-03-05T04:14:34.033Z,73.24
2023-03-05T04:19:35.605Z,73.18
2023-03-05T04:24:38.188Z,73.04
2023-03-05T04:29:39.868Z,73.82
2023-03-05T04:34:41.518Z,73.37
2023-03-05T04:39:43.738Z,73.47
2023-03-05T04:44:46.185Z,73.60
2023-03-05T04:49:47.822Z,73.54
2023-03-05T04:54:49.554Z,73.82
2023-03-05T04:59:51.188Z,73.66
2023-03-05T05:04:53.518Z,73.84
2023-03-05T05:09:55.247Z,73.99
2023-03-05T05:14:58.024Z,74.77
2023-03-05T05:20:07.729Z,74.48
2023-03-05T05:25:10.496Z,74.56
2023-03-05T05:30:12.691Z,74.37
2023-03-05T05:35:14.314Z,74.72
2023-03-05T05:40:15.933Z,74.83
2023-03-05T05:45:17.922Z,74.60
2023-03-05T05:50:20.714Z,74.46
2023-03-05T05:55:22.348Z,74.42
2023-03-05T06:00:24.113Z,74.79
2023-03-05T06:05:25.915Z,74.35
2023-03-05T06:10:27.544Z,74.38
2023-03-05T06:15:29.228Z,74.39
2023-03-05T06:20:30.844Z,74.82
2023-03-05T06:25:32.477Z,75.13
2023-03-05T06:30:34.150Z,74.91
2023-03-05T06:35:40.080Z,74.66
2023-03-05T06:40:41.793Z,74.41
2023-03-05T06:45:43.570Z,74.92
2023-03-05T06:50:45.244Z,74.65
2023-03-05T06:55:46.864Z,74.43
2023-03-05T07:00:48.605Z,74.29
2023-03-05T07:05:50.197Z,74.23
2023-03-05T07:10:51.997Z,74.48
2023-03-05T07:15:54.226Z,74.41
2023-03-05T07:20:55.854Z,73.98
2023-03-05T07:25:57.624Z,73.98
2023-03-05T07:31:01.657Z,74.01
2023-03-05T07:36:05.150Z,73.45
2023-03-05T07:41:10.929Z,73.58
2023-03-05T07:46:15.461Z,73.07
2023-03-05T07:51:19.936Z,72.81
2023-03-05T07:56:31.904Z,72.52
2023-03-05T08:01:34.490Z,72.82
2023-03-05T08:11:41.207Z,71.88
2023-03-05T08:16:42.829Z,71.68
2023-03-05T08:21:45.302Z,71.40
2023-03-05T08:26:47.141Z,71.18
2023-03-05T08:31:49.748Z,70.47
2023-03-05T08:36:51.653Z,70.75
2023-03-05T08:41:53.309Z,70.36
2023-03-05T08:46:55.119Z,70.08
2023-03-05T08:51:56.877Z,69.92
2023-03-05T08:56:58.704Z,70.07
2023-03-05T09:02:01.810Z,69.51
2023-03-05T09:07:03.628Z,69.59
2023-03-05T09:12:05.524Z,69.51
2023-03-05T09:17:07.696Z,68.92
2023-03-05T09:22:09.375Z,68.92
2023-03-05T09:27:10.991Z,68.55
2023-03-05T09:32:12.648Z,68.35
2023-03-05T09:37:14.376Z,67.78
2023-03-05T09:42:29.495Z,67.91
2023-03-05T09:47:52.192Z,67.79
2023-03-05T09:52:57.540Z,67.20
2023-03-05T09:58:06.766Z,66.73
2023-03-05T10:03:30.254Z,66.82
2023-03-05T10:08:52.245Z,66.10
2023-03-05T10:13:54.200Z,66.58
2023-03-05T10:19:34.357Z,64.88
2023-03-05T10:24:49.730Z,64.43
2023-03-05T10:30:21.154Z,64.88
2023-03-05T10:35:59.393Z,64.32
2023-03-05T10:41:12.588Z,64.29
2023-03-05T10:46:20.886Z,63.58
2023-03-05T10:51:39.566Z,63.03
2023-03-05T10:56:41.178Z,63.74
2023-03-05T11:02:02.539Z,62.80
2023-03-05T11:07:16.144Z,62.38
2023-03-05T11:12:22.029Z,62.48
2023-03-05T11:17:31.523Z,62.42
2023-03-05T11:22:35.900Z,60.25
2023-03-05T11:27:44.508Z,60.79
2023-03-05T11:32:47.865Z,59.44
2023-03-05T11:38:00.979Z,59.48
2023-03-05T11:43:05.007Z,60.12
2023-03-05T11:48:15.483Z,60.64
2023-03-05T11:53:35.424Z,60.17
2023-03-05T11:59:04.586Z,59.42
2023-03-05T12:04:08.553Z,61.26
2023-03-05T12:09:37.859Z,60.64
2023-03-05T12:14:51.661Z,60.93
2023-03-05T12:19:53.269Z,60.83
2023-03-05T12:25:29.638Z,62.13
2023-03-05T12:30:33.999Z,62.42
2023-03-05T12:35:38.593Z,63.10
2023-03-05T12:40:40.259Z,64.75
2023-03-05T12:45:42.497Z,64.51
2023-03-05T12:50:45.033Z,64.63
2023-03-05T12:56:25.662Z,64.90
2023-03-05T13:01:41.183Z,65.27
2023-03-05T13:06:42.997Z,65.71
2023-03-05T13:11:51.299Z,65.59
2023-03-05T13:16:53.096Z,63.95
2023-03-05T13:22:04.834Z,63.18
2023-03-05T13:27:30.016Z,63.48
2023-03-05T13:32:33.100Z,63.54
2023-03-05T13:37:37.539Z,62.95
2023-03-05T13:42:39.161Z,62.87
2023-03-05T13:47:53.594Z,62.68
2023-03-05T13:52:58.369Z,62.81
2023-03-05T13:58:00.934Z,62.81
2023-03-05T14:03:23.753Z,62.68
2023-03-05T14:08:26.753Z,62.85
2023-03-05T14:13:29.457Z,62.69
2023-03-05T14:18:31.060Z,62.66
2023-03-05T14:23:32.695Z,62.29
2023-03-05T14:28:34.479Z,62.30
2023-03-05T14:33:36.645Z,62.67
2023-03-05T14:38:43.220Z,62.44
2023-03-05T14:43:44.848Z,62.31
2023-03-05T14:48:46.985Z,62.10
2023-03-05T14:53:51.080Z,62.08
2023-03-05T14:58:53.921Z,62.20
2023-03-05T15:03:55.593Z,62.38
2023-03-05T15:08:57.295Z,61.88
2023-03-05T15:13:58.920Z,61.86
2023-03-05T15:19:00.900Z,61.33
2023-03-05T15:24:02.602Z,61.98
2023-03-05T15:29:04.442Z,61.95
2023-03-05T15:34:06.966Z,61.81
2023-03-05T15:39:08.560Z,61.59
2023-03-05T15:44:10.245Z,62.34
2023-03-05T15:49:12.046Z,61.64
2023-03-05T15:54:13.693Z,62.28
2023-03-05T15:59:15.415Z,62.29
2023-03-05T16:04:18.028Z,62.45
2023-03-05T16:09:21.755Z,62.64
2023-03-05T16:14:26.192Z,62.72
2023-03-05T16:19:28.091Z,62.74
2023-03-05T16:24:29.774Z,63.06
2023-03-05T16:29:32.493Z,63.00
2023-03-05T16:34:34.862Z,63.14
2023-03-05T16:39:36.507Z,63.36
2023-03-05T16:44:38.088Z,63.27
2023-03-05T16:49:40.419Z,63.60
2023-03-05T16:54:42.240Z,63.60
2023-03-05T16:59:44.921Z,63.51
2023-03-05T17:04:46.808Z,64.34
2023-03-05T17:09:50.349Z,65.34
2023-03-05T17:14:52.190Z,66.01
2023-03-05T17:19:53.865Z,65.87
2023-03-05T17:24:55.481Z,66.28
2023-03-05T17:29:57.135Z,65.90
2023-03-05T17:34:58.727Z,65.10
2023-03-05T17:40:00.621Z,65.27
2023-03-05T17:45:04.403Z,65.58
2023-03-05T17:50:07.533Z,65.17
2023-03-05T17:55:11.043Z,64.95
2023-03-05T18:00:28.245Z,65.42
2023-03-05T18:05:30.375Z,65.84
2023-03-05T18:10:33.412Z,65.36
2023-03-05T18:15:35.996Z,65.56
2023-03-05T18:20:37.671Z,65.33
2023-03-05T18:25:39.541Z,65.69
2023-03-05T18:30:42.349Z,65.49
2023-03-05T18:35:44.017Z,65.73
2023-03-05T18:40:47.093Z,65.59
2023-03-05T18:45:53.681Z,65.91
2023-03-05T18:50:55.334Z,65.82
2023-03-05T18:55:56.916Z,65.81
2023-03-05T19:00:58.684Z,65.56
2023-03-05T19:06:00.396Z,65.51
2023-03-05T19:11:02.655Z,65.65
2023-03-05T19:16:11.729Z,65.64
2023-03-05T19:21:13.376Z,65.54
2023-03-05T19:26:15.247Z,65.70
2023-03-05T19:31:16.892Z,65.86
2023-03-05T19:36:18.544Z,66.29
2023-03-05T19:41:21.777Z,66.18
2023-03-05T19:46:23.556Z,66.07
2023-03-05T19:51:26.364Z,66.12
2023-03-05T19:56:28.023Z,66.22
2023-03-05T20:01:29.688Z,66.39
2023-03-05T20:06:33.606Z,66.75
2023-03-05T20:11:35.763Z,67.17
2023-03-05T20:16:37.878Z,66.84
2023-03-05T20:21:41.068Z,66.95
2023-03-05T20:26:44.516Z,67.01
2023-03-05T20:31:47.180Z,66.89
2023-03-05T20:36:49.289Z,66.74
2023-03-05T20:41:51.226Z,67.06
2023-03-05T20:47:02.598Z,66.61
2023-03-05T20:52:04.593Z,67.12
2023-03-05T20:57:06.232Z,66.90
2023-03-05T21:02:09.762Z,67.03
2023-03-05T21:07:11.479Z,66.78
2023-03-05T21:12:13.236Z,66.88
2023-03-05T21:17:15.136Z,66.58
2023-03-05T21:22:16.753Z,66.97
2023-03-05T21:27:18.458Z,67.14
2023-03-05T21:32:20.118Z,67.07
2023-03-05T21:37:21.715Z,67.11
2023-03-05T21:42:23.367Z,67.47
2023-03-05T21:47:24.988Z,67.21
2023-03-05T21:52:26.789Z,67.78
2023-03-05T21:57:29.203Z,67.74
2023-03-05T22:02:30.809Z,68.35
2023-03-05T22:07:33.194Z,68.58
2023-03-05T22:12:54.085Z,68.56
2023-03-05T22:17:55.780Z,69.07
2023-03-05T22:22:57.365Z,68.76
2023-03-05T22:27:59.232Z,69.22
2023-03-05T22:33:01.656Z,69.17
2023-03-05T22:38:03.265Z,68.96
2023-03-05T22:43:04.953Z,69.23
2023-03-05T22:48:07.287Z,68.92
2023-03-05T22:53:08.941Z,69.29
2023-03-05T22:58:10.565Z,69.23
2023-03-05T23:03:12.231Z,69.91
2023-03-05T23:08:14.306Z,69.26
2023-03-05T23:13:15.982Z,69.66
2023-03-05T23:18:17.583Z,69.94
2023-03-05T23:23:20.037Z,70.03
2023-03-05T23:28:21.773Z,70.08
2023-03-05T23:33:24.189Z,70.07
2023-03-05T23:38:27.823Z,70.19
2023-03-05T23:43:30.180Z,70.32
2023-03-05T23:48:31.978Z,70.16
2023-03-05T23:53:33.644Z,70.15
2023-03-05T23:58:36.275Z,70.38
